sensor_id;sensor_type;location;lat;lon;timestamp;temperature;humidity
3919;DHT22;1974;48.670;8.994;2023-11-19T00:00:06;7.10;99.90
3919;DHT22;1974;48.670;8.994;2023-11-19T00:02:38;7.20;99.90
3919;DHT22;1974;48.670;8.994;2023-11-19T00:05:05;7.30;99.90
3919;DHT22;1974;48.670;8.994;2023-11-19T00:07:34;7.30;99.90
3919;DHT22;1974;48.670;8.994;2023-11-19T00:10:01;7.40;99.90
3919;DHT22;1974;48.670;8.994;2023-11-19T00:12:36;7.40;99.90
3919;DHT22;1974;48.670;8.994;2023-11-19T00:15:03;7.50;99.90
3919;DHT22;1974;48.670;8.994;2023-11-19T00:17:31;7.50;99.90
3919;DHT22;1974;48.670;8.994;2023-11-19T00:19:59;7.50;99.90
3919;DHT22;1974;48.670;8.994;2023-11-19T00:22:25;7.50;99.90
3919;DHT22;1974;48.670;8.994;2023-11-19T00:24:52;7.50;99.90
3919;DHT22;1974;48.670;8.994;2023-11-19T00:27:19;7.50;99.90
3919;DHT22;1974;48.670;8.994;2023-11-19T00:29:46;7.60;99.90
3919;DHT22;1974;48.670;8.994;2023-11-19T00:32:12;7.60;99.90
3919;DHT22;1974;48.670;8.994;2023-11-19T00:34:40;7.60;99.90
3919;DHT22;1974;48.670;8.994;2023-11-19T00:37:08;7.60;99.90
3919;DHT22;1974;48.670;8.994;2023-11-19T00:39:35;7.70;99.90
3919;DHT22;1974;48.670;8.994;2023-11-19T00:42:02;7.70;99.90
3919;DHT22;1974;48.670;8.994;2023-11-19T00:44:30;7.80;99.90
3919;DHT22;1974;48.670;8.994;2023-11-19T00:46:57;7.80;99.90
3919;DHT22;1974;48.670;8.994;2023-11-19T00:49:25;7.90;99.90
3919;DHT22;1974;48.670;8.994;2023-11-19T00:51:51;7.90;99.90
3919;DHT22;1974;48.670;8.994;2023-11-19T00:54:20;8.00;99.90
3919;DHT22;1974;48.670;8.994;2023-11-19T00:56:47;7.90;99.90
3919;DHT22;1974;48.670;8.994;2023-11-19T00:59:14;8.00;99.90
3919;DHT22;1974;48.670;8.994;2023-11-19T01:01:41;8.10;99.90
3919;DHT22;1974;48.670;8.994;2023-11-19T01:04:08;8.00;99.90
3919;DHT22;1974;48.670;8.994;2023-11-19T01:06:35;8.10;99.90
3919;DHT22;1974;48.670;8.994;2023-11-19T01:09:02;8.20;99.90
3919;DHT22;1974;48.670;8.994;2023-11-19T01:11:30;8.10;99.90
3919;DHT22;1974;48.670;8.994;2023-11-19T01:13:56;8.20;99.90
3919;DHT22;1974;48.670;8.994;2023-11-19T01:16:23;8.20;99.90
3919;DHT22;1974;48.670;8.994;2023-11-19T01:18:50;8.30;99.90
3919;DHT22;1974;48.670;8.994;2023-11-19T01:21:17;8.30;99.90
3919;DHT22;1974;48.670;8.994;2023-11-19T01:23:44;8.30;99.90
3919;DHT22;1974;48.670;8.994;2023-11-19T01:26:12;8.40;99.90
3919;DHT22;1974;48.670;8.994;2023-11-19T01:28:40;8.40;99.90
3919;DHT22;1974;48.670;8.994;2023-11-19T01:31:10;8.40;99.90
3919;DHT22;1974;48.670;8.994;2023-11-19T01:33:38;8.50;99.90
3919;DHT22;1974;48.670;8.994;2023-11-19T01:36:05;8.40;99.90
3919;DHT22;1974;48.670;8.994;2023-11-19T01:38:33;8.40;99.90
3919;DHT22;1974;48.670;8.994;2023-11-19T01:41:00;8.50;99.90
3919;DHT22;1974;48.670;8.994;2023-11-19T01:43:36;8.50;99.90
3919;DHT22;1974;48.670;8.994;2023-11-19T01:46:05;8.60;99.90
3919;DHT22;1974;48.670;8.994;2023-11-19T01:48:34;8.60;99.90
3919;DHT22;1974;48.670;8.994;2023-11-19T01:51:01;8.60;99.90
3919;DHT22;1974;48.670;8.994;2023-11-19T01:53:29;8.60;99.90
3919;DHT22;1974;48.670;8.994;2023-11-19T01:55:57;8.80;99.90
3919;DHT22;1974;48.670;8.994;2023-11-19T01:58:24;8.70;99.90
3919;DHT22;1974;48.670;8.994;2023-11-19T02:00:51;8.70;99.90
3919;DHT22;1974;48.670;8.994;2023-11-19T02:03:20;8.80;99.90
3919;DHT22;1974;48.670;8.994;2023-11-19T02:05:48;8.70;99.90
3919;DHT22;1974;48.670;8.994;2023-11-19T02:08:16;8.70;99.90
3919;DHT22;1974;48.670;8.994;2023-11-19T02:10:43;8.80;99.90
3919;DHT22;1974;48.670;8.994;2023-11-19T02:13:09;8.90;99.90
3919;DHT22;1974;48.670;8.994;2023-11-19T02:15:39;8.90;99.90
3919;DHT22;1974;48.670;8.994;2023-11-19T02:18:20;8.90;99.90
3919;DHT22;1974;48.670;8.994;2023-11-19T02:20:48;8.80;99.90
3919;DHT22;1974;48.670;8.994;2023-11-19T02:23:15;8.90;99.90
3919;DHT22;1974;48.670;8.994;2023-11-19T02:25:43;8.90;99.90
3919;DHT22;1974;48.670;8.994;2023-11-19T02:28:13;8.90;99.90
3919;DHT22;1974;48.670;8.994;2023-11-19T02:30:42;8.90;99.90
3919;DHT22;1974;48.670;8.994;2023-11-19T02:33:08;8.90;99.90
3919;DHT22;1974;48.670;8.994;2023-11-19T02:35:35;9.00;99.90
3919;DHT22;1974;48.670;8.994;2023-11-19T02:38:02;9.00;99.90
3919;DHT22;1974;48.670;8.994;2023-11-19T02:40:29;9.00;99.90
3919;DHT22;1974;48.670;8.994;2023-11-19T02:42:56;9.00;99.90
3919;DHT22;1974;48.670;8.994;2023-11-19T02:45:25;9.00;99.90
3919;DHT22;1974;48.670;8.994;2023-11-19T02:47:53;9.00;99.90
3919;DHT22;1974;48.670;8.994;2023-11-19T02:50:20;9.10;99.90
3919;DHT22;1974;48.670;8.994;2023-11-19T02:52:53;9.00;99.90
3919;DHT22;1974;48.670;8.994;2023-11-19T02:55:21;9.10;99.90
3919;DHT22;1974;48.670;8.994;2023-11-19T02:57:49;9.10;99.90
3919;DHT22;1974;48.670;8.994;2023-11-19T03:00:18;9.10;99.90
3919;DHT22;1974;48.670;8.994;2023-11-19T03:02:50;9.10;99.90
3919;DHT22;1974;48.670;8.994;2023-11-19T03:05:26;9.10;99.90
3919;DHT22;1974;48.670;8.994;2023-11-19T03:07:55;9.10;99.90
3919;DHT22;1974;48.670;8.994;2023-11-19T03:10:22;9.20;99.90
3919;DHT22;1974;48.670;8.994;2023-11-19T03:12:49;9.20;99.90
3919;DHT22;1974;48.670;8.994;2023-11-19T03:15:16;9.20;99.90
3919;DHT22;1974;48.670;8.994;2023-11-19T03:17:43;9.20;99.90
3919;DHT22;1974;48.670;8.994;2023-11-19T03:20:12;9.20;99.90
3919;DHT22;1974;48.670;8.994;2023-11-19T03:22:41;9.30;99.90
3919;DHT22;1974;48.670;8.994;2023-11-19T03:25:08;9.30;99.90
3919;DHT22;1974;48.670;8.994;2023-11-19T03:27:35;9.30;99.90
3919;DHT22;1974;48.670;8.994;2023-11-19T03:30:02;9.30;99.90
3919;DHT22;1974;48.670;8.994;2023-11-19T03:32:30;9.30;99.90
3919;DHT22;1974;48.670;8.994;2023-11-19T03:34:57;9.30;99.90
3919;DHT22;1974;48.670;8.994;2023-11-19T03:37:26;9.20;99.90
3919;DHT22;1974;48.670;8.994;2023-11-19T03:39:53;9.20;99.90
3919;DHT22;1974;48.670;8.994;2023-11-19T03:42:20;9.20;99.90
3919;DHT22;1974;48.670;8.994;2023-11-19T03:44:47;9.20;99.90
3919;DHT22;1974;48.670;8.994;2023-11-19T03:47:14;9.30;99.90
3919;DHT22;1974;48.670;8.994;2023-11-19T03:49:41;9.20;99.90
3919;DHT22;1974;48.670;8.994;2023-11-19T03:52:09;9.30;99.90
3919;DHT22;1974;48.670;8.994;2023-11-19T03:54:37;9.30;99.90
3919;DHT22;1974;48.670;8.994;2023-11-19T03:57:04;9.30;99.90
3919;DHT22;1974;48.670;8.994;2023-11-19T03:59:31;9.30;99.90
3919;DHT22;1974;48.670;8.994;2023-11-19T04:01:58;9.30;99.90
3919;DHT22;1974;48.670;8.994;2023-11-19T04:04:26;9.30;99.90
3919;DHT22;1974;48.670;8.994;2023-11-19T04:06:53;9.30;99.90
3919;DHT22;1974;48.670;8.994;2023-11-19T04:09:19;9.30;99.90
3919;DHT22;1974;48.670;8.994;2023-11-19T04:11:48;9.30;99.90
3919;DHT22;1974;48.670;8.994;2023-11-19T04:14:14;9.30;99.90
3919;DHT22;1974;48.670;8.994;2023-11-19T04:16:43;9.40;99.90
3919;DHT22;1974;48.670;8.994;2023-11-19T04:19:10;9.40;99.90
3919;DHT22;1974;48.670;8.994;2023-11-19T04:21:39;9.40;99.90
3919;DHT22;1974;48.670;8.994;2023-11-19T04:24:06;9.40;99.90
3919;DHT22;1974;48.670;8.994;2023-11-19T04:26:33;9.50;99.90
3919;DHT22;1974;48.670;8.994;2023-11-19T04:29:03;9.40;99.90
3919;DHT22;1974;48.670;8.994;2023-11-19T04:31:31;9.50;99.90
3919;DHT22;1974;48.670;8.994;2023-11-19T04:33:58;9.50;99.90
3919;DHT22;1974;48.670;8.994;2023-11-19T04:36:25;9.50;99.90
3919;DHT22;1974;48.670;8.994;2023-11-19T04:38:52;9.50;99.90
3919;DHT22;1974;48.670;8.994;2023-11-19T04:41:19;9.50;99.90
3919;DHT22;1974;48.670;8.994;2023-11-19T04:43:46;9.50;99.90
3919;DHT22;1974;48.670;8.994;2023-11-19T04:46:14;9.50;99.90
3919;DHT22;1974;48.670;8.994;2023-11-19T04:48:41;9.50;99.90
3919;DHT22;1974;48.670;8.994;2023-11-19T04:51:08;9.50;99.90
3919;DHT22;1974;48.670;8.994;2023-11-19T04:53:35;9.60;99.90
3919;DHT22;1974;48.670;8.994;2023-11-19T04:56:07;9.60;99.90
3919;DHT22;1974;48.670;8.994;2023-11-19T04:58:34;9.60;99.90
3919;DHT22;1974;48.670;8.994;2023-11-19T05:01:03;9.60;99.90
3919;DHT22;1974;48.670;8.994;2023-11-19T05:03:31;9.60;99.90
3919;DHT22;1974;48.670;8.994;2023-11-19T05:05:58;9.60;99.90
3919;DHT22;1974;48.670;8.994;2023-11-19T05:08:25;9.60;99.90
3919;DHT22;1974;48.670;8.994;2023-11-19T05:10:51;9.60;99.90
3919;DHT22;1974;48.670;8.994;2023-11-19T05:13:18;9.60;99.90
3919;DHT22;1974;48.670;8.994;2023-11-19T05:15:45;9.50;99.90
3919;DHT22;1974;48.670;8.994;2023-11-19T05:18:12;9.60;99.90
3919;DHT22;1974;48.670;8.994;2023-11-19T05:20:40;9.70;99.90
3919;DHT22;1974;48.670;8.994;2023-11-19T05:23:07;9.70;99.90
3919;DHT22;1974;48.670;8.994;2023-11-19T05:25:33;9.60;99.90
3919;DHT22;1974;48.670;8.994;2023-11-19T05:28:00;9.70;99.90
3919;DHT22;1974;48.670;8.994;2023-11-19T05:30:27;9.60;99.90
3919;DHT22;1974;48.670;8.994;2023-11-19T05:32:54;9.70;99.90
3919;DHT22;1974;48.670;8.994;2023-11-19T05:35:21;9.70;99.90
3919;DHT22;1974;48.670;8.994;2023-11-19T05:37:49;9.70;99.90
3919;DHT22;1974;48.670;8.994;2023-11-19T05:40:16;9.70;99.90
3919;DHT22;1974;48.670;8.994;2023-11-19T05:42:43;9.70;99.90
3919;DHT22;1974;48.670;8.994;2023-11-19T05:45:11;9.70;99.90
3919;DHT22;1974;48.670;8.994;2023-11-19T05:47:38;9.70;99.90
3919;DHT22;1974;48.670;8.994;2023-11-19T05:50:05;9.70;99.90
3919;DHT22;1974;48.670;8.994;2023-11-19T05:52:32;9.70;99.90
3919;DHT22;1974;48.670;8.994;2023-11-19T05:55:00;9.70;99.90
3919;DHT22;1974;48.670;8.994;2023-11-19T05:57:29;9.70;99.90
3919;DHT22;1974;48.670;8.994;2023-11-19T05:59:56;9.70;99.90
3919;DHT22;1974;48.670;8.994;2023-11-19T06:02:24;9.70;99.90
3919;DHT22;1974;48.670;8.994;2023-11-19T06:04:52;9.70;99.90
3919;DHT22;1974;48.670;8.994;2023-11-19T06:07:19;9.70;99.90
3919;DHT22;1974;48.670;8.994;2023-11-19T06:09:46;9.70;99.90
3919;DHT22;1974;48.670;8.994;2023-11-19T06:12:14;9.70;99.90
3919;DHT22;1974;48.670;8.994;2023-11-19T06:14:41;9.70;99.90
3919;DHT22;1974;48.670;8.994;2023-11-19T06:17:08;9.70;99.90
3919;DHT22;1974;48.670;8.994;2023-11-19T06:19:36;9.80;99.90
3919;DHT22;1974;48.670;8.994;2023-11-19T06:22:03;9.80;99.90
3919;DHT22;1974;48.670;8.994;2023-11-19T06:24:30;9.70;99.90
3919;DHT22;1974;48.670;8.994;2023-11-19T06:26:57;9.70;99.90
3919;DHT22;1974;48.670;8.994;2023-11-19T06:29:25;9.70;99.90
3919;DHT22;1974;48.670;8.994;2023-11-19T06:31:51;9.80;99.90
3919;DHT22;1974;48.670;8.994;2023-11-19T06:34:18;9.90;99.90
3919;DHT22;1974;48.670;8.994;2023-11-19T06:36:45;9.80;99.90
3919;DHT22;1974;48.670;8.994;2023-11-19T06:39:12;9.80;99.90
3919;DHT22;1974;48.670;8.994;2023-11-19T06:41:38;9.80;99.90
3919;DHT22;1974;48.670;8.994;2023-11-19T06:44:05;9.80;99.90
3919;DHT22;1974;48.670;8.994;2023-11-19T06:46:33;9.80;99.90
3919;DHT22;1974;48.670;8.994;2023-11-19T06:49:00;9.80;99.90
3919;DHT22;1974;48.670;8.994;2023-11-19T06:51:29;9.90;99.90
3919;DHT22;1974;48.670;8.994;2023-11-19T06:53:59;9.80;99.90
3919;DHT22;1974;48.670;8.994;2023-11-19T06:56:26;9.80;99.90
3919;DHT22;1974;48.670;8.994;2023-11-19T06:58:53;9.90;99.90
3919;DHT22;1974;48.670;8.994;2023-11-19T07:01:20;9.80;99.90
3919;DHT22;1974;48.670;8.994;2023-11-19T07:03:48;9.80;99.90
3919;DHT22;1974;48.670;8.994;2023-11-19T07:06:16;9.90;99.90
3919;DHT22;1974;48.670;8.994;2023-11-19T07:08:43;9.80;99.90
3919;DHT22;1974;48.670;8.994;2023-11-19T07:11:11;9.80;99.90
3919;DHT22;1974;48.670;8.994;2023-11-19T07:13:39;9.90;99.90
3919;DHT22;1974;48.670;8.994;2023-11-19T07:16:07;9.90;99.90
3919;DHT22;1974;48.670;8.994;2023-11-19T07:18:36;9.90;99.90
3919;DHT22;1974;48.670;8.994;2023-11-19T07:21:04;9.90;99.90
3919;DHT22;1974;48.670;8.994;2023-11-19T07:23:31;9.90;99.90
3919;DHT22;1974;48.670;8.994;2023-11-19T07:25:58;9.90;99.90
3919;DHT22;1974;48.670;8.994;2023-11-19T07:28:25;9.90;99.90
3919;DHT22;1974;48.670;8.994;2023-11-19T07:30:54;9.90;99.90
3919;DHT22;1974;48.670;8.994;2023-11-19T07:33:21;10.00;99.90
3919;DHT22;1974;48.670;8.994;2023-11-19T07:35:48;10.00;99.90
3919;DHT22;1974;48.670;8.994;2023-11-19T07:38:16;10.00;99.90
3919;DHT22;1974;48.670;8.994;2023-11-19T07:40:43;10.00;99.90
3919;DHT22;1974;48.670;8.994;2023-11-19T07:43:10;10.10;99.90
3919;DHT22;1974;48.670;8.994;2023-11-19T07:45:37;10.10;99.90
3919;DHT22;1974;48.670;8.994;2023-11-19T07:48:04;10.10;99.90
3919;DHT22;1974;48.670;8.994;2023-11-19T07:50:31;10.10;99.90
3919;DHT22;1974;48.670;8.994;2023-11-19T07:52:58;10.00;99.90
3919;DHT22;1974;48.670;8.994;2023-11-19T07:55:27;10.10;99.90
3919;DHT22;1974;48.670;8.994;2023-11-19T07:57:54;10.10;99.90
3919;DHT22;1974;48.670;8.994;2023-11-19T08:00:21;10.10;99.90
3919;DHT22;1974;48.670;8.994;2023-11-19T08:02:48;10.10;99.90
3919;DHT22;1974;48.670;8.994;2023-11-19T08:05:14;10.10;99.90
3919;DHT22;1974;48.670;8.994;2023-11-19T08:07:41;10.20;99.90
3919;DHT22;1974;48.670;8.994;2023-11-19T08:10:08;10.30;99.90
3919;DHT22;1974;48.670;8.994;2023-11-19T08:12:37;10.20;99.90
3919;DHT22;1974;48.670;8.994;2023-11-19T08:15:05;10.20;99.90
3919;DHT22;1974;48.670;8.994;2023-11-19T08:17:32;10.20;99.90
3919;DHT22;1974;48.670;8.994;2023-11-19T08:19:59;10.20;99.90
3919;DHT22;1974;48.670;8.994;2023-11-19T08:22:26;10.30;99.90
3919;DHT22;1974;48.670;8.994;2023-11-19T08:24:53;10.30;99.90
3919;DHT22;1974;48.670;8.994;2023-11-19T08:27:20;10.30;99.90
3919;DHT22;1974;48.670;8.994;2023-11-19T08:29:53;10.30;99.90
3919;DHT22;1974;48.670;8.994;2023-11-19T08:32:21;10.30;99.90
3919;DHT22;1974;48.670;8.994;2023-11-19T08:34:47;10.40;99.90
3919;DHT22;1974;48.670;8.994;2023-11-19T08:37:14;10.40;99.90
3919;DHT22;1974;48.670;8.994;2023-11-19T08:39:43;12.30;99.90
3919;DHT22;1974;48.670;8.994;2023-11-19T08:42:10;11.00;99.90
3919;DHT22;1974;48.670;8.994;2023-11-19T08:44:36;11.40;99.90
3919;DHT22;1974;48.670;8.994;2023-11-19T08:47:05;11.30;99.90
3919;DHT22;1974;48.670;8.994;2023-11-19T08:49:32;11.40;99.90
3919;DHT22;1974;48.670;8.994;2023-11-19T08:51:58;12.00;99.90
3919;DHT22;1974;48.670;8.994;2023-11-19T08:54:25;12.60;99.90
3919;DHT22;1974;48.670;8.994;2023-11-19T08:56:52;12.60;99.90
3919;DHT22;1974;48.670;8.994;2023-11-19T08:59:18;12.70;99.90
3919;DHT22;1974;48.670;8.994;2023-11-19T09:01:45;13.20;99.90
3919;DHT22;1974;48.670;8.994;2023-11-19T09:04:13;14.00;99.90
3919;DHT22;1974;48.670;8.994;2023-11-19T09:06:41;14.60;99.90
3919;DHT22;1974;48.670;8.994;2023-11-19T09:09:09;14.50;99.90
3919;DHT22;1974;48.670;8.994;2023-11-19T09:11:36;14.10;99.90
3919;DHT22;1974;48.670;8.994;2023-11-19T09:14:03;14.20;99.90
3919;DHT22;1974;48.670;8.994;2023-11-19T09:16:30;14.70;99.90
3919;DHT22;1974;48.670;8.994;2023-11-19T09:18:57;14.70;99.90
3919;DHT22;1974;48.670;8.994;2023-11-19T09:21:26;14.60;99.90
3919;DHT22;1974;48.670;8.994;2023-11-19T09:23:53;14.40;99.90
3919;DHT22;1974;48.670;8.994;2023-11-19T09:26:19;14.10;99.90
3919;DHT22;1974;48.670;8.994;2023-11-19T09:28:46;13.80;99.90
3919;DHT22;1974;48.670;8.994;2023-11-19T09:31:13;13.60;99.90
3919;DHT22;1974;48.670;8.994;2023-11-19T09:33:40;13.90;99.90
3919;DHT22;1974;48.670;8.994;2023-11-19T09:36:07;14.10;99.90
3919;DHT22;1974;48.670;8.994;2023-11-19T09:38:35;14.00;99.90
3919;DHT22;1974;48.670;8.994;2023-11-19T09:41:04;14.00;99.90
3919;DHT22;1974;48.670;8.994;2023-11-19T09:43:34;13.80;99.90
3919;DHT22;1974;48.670;8.994;2023-11-19T09:46:04;13.70;99.90
3919;DHT22;1974;48.670;8.994;2023-11-19T09:48:32;13.50;99.90
3919;DHT22;1974;48.670;8.994;2023-11-19T09:51:00;13.10;99.90
3919;DHT22;1974;48.670;8.994;2023-11-19T09:53:27;13.00;99.90
3919;DHT22;1974;48.670;8.994;2023-11-19T09:55:55;13.00;99.90
3919;DHT22;1974;48.670;8.994;2023-11-19T09:58:22;12.80;99.90
3919;DHT22;1974;48.670;8.994;2023-11-19T10:00:50;12.80;99.90
3919;DHT22;1974;48.670;8.994;2023-11-19T10:03:17;12.70;99.90
3919;DHT22;1974;48.670;8.994;2023-11-19T10:05:44;12.60;99.90
3919;DHT22;1974;48.670;8.994;2023-11-19T10:08:11;12.60;99.90
3919;DHT22;1974;48.670;8.994;2023-11-19T10:10:39;12.70;99.90
3919;DHT22;1974;48.670;8.994;2023-11-19T10:13:07;13.00;99.90
3919;DHT22;1974;48.670;8.994;2023-11-19T10:15:37;13.00;99.90
3919;DHT22;1974;48.670;8.994;2023-11-19T10:18:04;13.10;99.90
3919;DHT22;1974;48.670;8.994;2023-11-19T10:20:35;13.10;99.90
3919;DHT22;1974;48.670;8.994;2023-11-19T10:23:02;13.10;99.90
3919;DHT22;1974;48.670;8.994;2023-11-19T10:25:29;13.10;99.90
3919;DHT22;1974;48.670;8.994;2023-11-19T10:27:57;13.10;99.90
3919;DHT22;1974;48.670;8.994;2023-11-19T10:30:26;13.40;99.90
3919;DHT22;1974;48.670;8.994;2023-11-19T10:33:06;13.50;99.90
3919;DHT22;1974;48.670;8.994;2023-11-19T10:35:33;13.60;99.90
3919;DHT22;1974;48.670;8.994;2023-11-19T10:38:00;13.60;99.90
3919;DHT22;1974;48.670;8.994;2023-11-19T10:40:39;13.50;99.90
3919;DHT22;1974;48.670;8.994;2023-11-19T10:43:06;13.50;99.90
3919;DHT22;1974;48.670;8.994;2023-11-19T10:45:35;13.60;99.90
3919;DHT22;1974;48.670;8.994;2023-11-19T10:48:03;13.80;99.90
3919;DHT22;1974;48.670;8.994;2023-11-19T10:50:32;13.90;99.90
3919;DHT22;1974;48.670;8.994;2023-11-19T10:52:59;13.90;99.90
3919;DHT22;1974;48.670;8.994;2023-11-19T10:55:28;13.90;99.90
3919;DHT22;1974;48.670;8.994;2023-11-19T10:57:59;13.80;99.90
3919;DHT22;1974;48.670;8.994;2023-11-19T11:00:29;13.70;99.90
3919;DHT22;1974;48.670;8.994;2023-11-19T11:03:01;13.70;99.90
3919;DHT22;1974;48.670;8.994;2023-11-19T11:05:29;13.80;99.90
3919;DHT22;1974;48.670;8.994;2023-11-19T11:07:58;13.80;99.90
3919;DHT22;1974;48.670;8.994;2023-11-19T11:10:26;13.80;99.90
3919;DHT22;1974;48.670;8.994;2023-11-19T11:12:56;13.80;99.90
3919;DHT22;1974;48.670;8.994;2023-11-19T11:15:27;13.90;99.90
3919;DHT22;1974;48.670;8.994;2023-11-19T11:18:00;13.90;99.90
3919;DHT22;1974;48.670;8.994;2023-11-19T11:20:29;14.80;99.90
3919;DHT22;1974;48.670;8.994;2023-11-19T11:23:08;13.90;99.90
3919;DHT22;1974;48.670;8.994;2023-11-19T11:25:46;13.90;99.90
3919;DHT22;1974;48.670;8.994;2023-11-19T11:28:26;13.80;99.90
3919;DHT22;1974;48.670;8.994;2023-11-19T11:31:15;13.80;99.90
3919;DHT22;1974;48.670;8.994;2023-11-19T11:34:04;13.70;99.90
3919;DHT22;1974;48.670;8.994;2023-11-19T11:36:35;13.60;99.90
3919;DHT22;1974;48.670;8.994;2023-11-19T11:39:06;13.60;99.90
3919;DHT22;1974;48.670;8.994;2023-11-19T11:41:34;13.50;99.90
3919;DHT22;1974;48.670;8.994;2023-11-19T11:44:01;13.50;99.90
3919;DHT22;1974;48.670;8.994;2023-11-19T11:46:53;13.50;99.90
3919;DHT22;1974;48.670;8.994;2023-11-19T11:49:26;13.40;99.90
3919;DHT22;1974;48.670;8.994;2023-11-19T11:52:02;13.40;99.90
3919;DHT22;1974;48.670;8.994;2023-11-19T11:54:29;13.40;99.90
3919;DHT22;1974;48.670;8.994;2023-11-19T11:57:10;13.40;99.90
3919;DHT22;1974;48.670;8.994;2023-11-19T11:59:48;13.30;99.90
3919;DHT22;1974;48.670;8.994;2023-11-19T12:02:17;13.30;99.90
3919;DHT22;1974;48.670;8.994;2023-11-19T12:04:48;13.30;99.90
3919;DHT22;1974;48.670;8.994;2023-11-19T12:07:17;13.30;99.90
3919;DHT22;1974;48.670;8.994;2023-11-19T12:09:48;13.20;99.90
3919;DHT22;1974;48.670;8.994;2023-11-19T12:12:20;13.30;99.90
3919;DHT22;1974;48.670;8.994;2023-11-19T12:15:00;13.30;99.90
3919;DHT22;1974;48.670;8.994;2023-11-19T12:17:46;13.40;99.90
3919;DHT22;1974;48.670;8.994;2023-11-19T12:20:16;13.40;99.90
3919;DHT22;1974;48.670;8.994;2023-11-19T12:22:45;13.40;99.90
3919;DHT22;1974;48.670;8.994;2023-11-19T12:25:12;13.50;99.90
3919;DHT22;1974;48.670;8.994;2023-11-19T12:27:40;13.50;99.90
3919;DHT22;1974;48.670;8.994;2023-11-19T12:30:08;13.60;99.90
3919;DHT22;1974;48.670;8.994;2023-11-19T12:32:39;13.70;99.90
3919;DHT22;1974;48.670;8.994;2023-11-19T12:35:07;13.80;99.90
3919;DHT22;1974;48.670;8.994;2023-11-19T12:37:41;13.80;99.90
3919;DHT22;1974;48.670;8.994;2023-11-19T12:40:12;13.90;99.90
3919;DHT22;1974;48.670;8.994;2023-11-19T12:42:40;13.90;99.90
3919;DHT22;1974;48.670;8.994;2023-11-19T12:45:07;13.90;99.90
3919;DHT22;1974;48.670;8.994;2023-11-19T12:47:34;13.90;99.90
3919;DHT22;1974;48.670;8.994;2023-11-19T12:50:01;13.80;99.90
3919;DHT22;1974;48.670;8.994;2023-11-19T12:52:29;13.80;99.90
3919;DHT22;1974;48.670;8.994;2023-11-19T12:54:57;13.70;99.90
3919;DHT22;1974;48.670;8.994;2023-11-19T12:57:36;13.50;99.90
3919;DHT22;1974;48.670;8.994;2023-11-19T13:00:04;13.40;99.90
3919;DHT22;1974;48.670;8.994;2023-11-19T13:02:45;13.30;99.90
3919;DHT22;1974;48.670;8.994;2023-11-19T13:05:26;13.20;99.90
3919;DHT22;1974;48.670;8.994;2023-11-19T13:08:02;13.10;99.90
3919;DHT22;1974;48.670;8.994;2023-11-19T13:10:31;13.10;99.90
3919;DHT22;1974;48.670;8.994;2023-11-19T13:13:03;13.00;99.90
3919;DHT22;1974;48.670;8.994;2023-11-19T13:15:30;13.00;99.90
3919;DHT22;1974;48.670;8.994;2023-11-19T13:17:57;13.10;99.90
3919;DHT22;1974;48.670;8.994;2023-11-19T13:20:24;13.10;99.90
3919;DHT22;1974;48.670;8.994;2023-11-19T13:22:55;13.10;99.90
3919;DHT22;1974;48.670;8.994;2023-11-19T13:25:22;13.20;99.90
3919;DHT22;1974;48.670;8.994;2023-11-19T13:27:50;13.20;99.90
3919;DHT22;1974;48.670;8.994;2023-11-19T13:30:17;13.30;99.90
3919;DHT22;1974;48.670;8.994;2023-11-19T13:32:44;13.30;99.90
3919;DHT22;1974;48.670;8.994;2023-11-19T13:35:11;13.40;99.90
3919;DHT22;1974;48.670;8.994;2023-11-19T13:37:38;13.40;99.90
3919;DHT22;1974;48.670;8.994;2023-11-19T13:40:07;13.40;99.90
3919;DHT22;1974;48.670;8.994;2023-11-19T13:42:35;13.40;99.90
3919;DHT22;1974;48.670;8.994;2023-11-19T13:45:04;13.30;99.90
3919;DHT22;1974;48.670;8.994;2023-11-19T13:47:36;13.30;99.90
3919;DHT22;1974;48.670;8.994;2023-11-19T13:50:03;13.30;99.90
3919;DHT22;1974;48.670;8.994;2023-11-19T13:52:31;13.20;99.90
3919;DHT22;1974;48.670;8.994;2023-11-19T13:54:58;13.20;99.90
3919;DHT22;1974;48.670;8.994;2023-11-19T13:57:25;13.10;99.90
3919;DHT22;1974;48.670;8.994;2023-11-19T13:59:52;13.00;99.90
3919;DHT22;1974;48.670;8.994;2023-11-19T14:02:20;13.00;99.90
3919;DHT22;1974;48.670;8.994;2023-11-19T14:04:45;12.90;99.90
3919;DHT22;1974;48.670;8.994;2023-11-19T14:07:12;12.90;99.90
3919;DHT22;1974;48.670;8.994;2023-11-19T14:09:41;12.90;99.90
3919;DHT22;1974;48.670;8.994;2023-11-19T14:12:08;12.70;99.90
3919;DHT22;1974;48.670;8.994;2023-11-19T14:14:38;12.80;99.90
3919;DHT22;1974;48.670;8.994;2023-11-19T14:17:05;12.70;99.90
3919;DHT22;1974;48.670;8.994;2023-11-19T14:19:34;12.70;99.90
3919;DHT22;1974;48.670;8.994;2023-11-19T14:22:01;12.60;99.90
3919;DHT22;1974;48.670;8.994;2023-11-19T14:24:28;12.50;99.90
3919;DHT22;1974;48.670;8.994;2023-11-19T14:26:54;12.50;99.90
3919;DHT22;1974;48.670;8.994;2023-11-19T14:29:24;12.50;99.90
3919;DHT22;1974;48.670;8.994;2023-11-19T14:31:52;12.40;99.90
3919;DHT22;1974;48.670;8.994;2023-11-19T14:34:19;12.30;99.90
3919;DHT22;1974;48.670;8.994;2023-11-19T14:36:47;12.30;99.90
3919;DHT22;1974;48.670;8.994;2023-11-19T14:39:14;12.30;99.90
3919;DHT22;1974;48.670;8.994;2023-11-19T14:41:42;12.30;99.90
3919;DHT22;1974;48.670;8.994;2023-11-19T14:44:09;12.20;99.90
3919;DHT22;1974;48.670;8.994;2023-11-19T14:46:36;12.20;99.90
3919;DHT22;1974;48.670;8.994;2023-11-19T14:49:03;12.10;99.90
3919;DHT22;1974;48.670;8.994;2023-11-19T14:51:30;12.00;99.90
3919;DHT22;1974;48.670;8.994;2023-11-19T14:53:58;11.90;99.90
3919;DHT22;1974;48.670;8.994;2023-11-19T14:56:25;11.90;99.90
3919;DHT22;1974;48.670;8.994;2023-11-19T14:58:51;11.90;99.90
3919;DHT22;1974;48.670;8.994;2023-11-19T15:01:18;11.90;99.90
3919;DHT22;1974;48.670;8.994;2023-11-19T15:03:45;11.80;99.90
3919;DHT22;1974;48.670;8.994;2023-11-19T15:06:12;11.70;99.90
3919;DHT22;1974;48.670;8.994;2023-11-19T15:08:39;11.70;99.90
3919;DHT22;1974;48.670;8.994;2023-11-19T15:11:08;11.70;99.90
3919;DHT22;1974;48.670;8.994;2023-11-19T15:13:37;11.50;99.90
3919;DHT22;1974;48.670;8.994;2023-11-19T15:16:07;11.50;99.90
3919;DHT22;1974;48.670;8.994;2023-11-19T15:18:36;11.50;99.90
3919;DHT22;1974;48.670;8.994;2023-11-19T15:21:03;11.50;99.90
3919;DHT22;1974;48.670;8.994;2023-11-19T15:23:29;11.50;99.90
3919;DHT22;1974;48.670;8.994;2023-11-19T15:25:56;11.40;99.90
3919;DHT22;1974;48.670;8.994;2023-11-19T15:28:24;11.40;99.90
3919;DHT22;1974;48.670;8.994;2023-11-19T15:30:51;11.30;99.90
3919;DHT22;1974;48.670;8.994;2023-11-19T15:33:18;11.30;99.90
3919;DHT22;1974;48.670;8.994;2023-11-19T15:35:44;11.30;99.90
3919;DHT22;1974;48.670;8.994;2023-11-19T15:38:11;11.20;99.90
3919;DHT22;1974;48.670;8.994;2023-11-19T15:40:38;11.20;99.90
3919;DHT22;1974;48.670;8.994;2023-11-19T15:43:05;11.10;99.90
3919;DHT22;1974;48.670;8.994;2023-11-19T15:45:34;11.00;99.90
3919;DHT22;1974;48.670;8.994;2023-11-19T15:48:03;11.00;99.90
3919;DHT22;1974;48.670;8.994;2023-11-19T15:50:30;10.90;99.90
3919;DHT22;1974;48.670;8.994;2023-11-19T15:52:57;10.90;99.90
3919;DHT22;1974;48.670;8.994;2023-11-19T15:55:27;10.80;99.90
3919;DHT22;1974;48.670;8.994;2023-11-19T15:57:53;10.80;99.90
3919;DHT22;1974;48.670;8.994;2023-11-19T16:00:20;10.70;99.90
3919;DHT22;1974;48.670;8.994;2023-11-19T16:02:48;11.00;99.90
3919;DHT22;1974;48.670;8.994;2023-11-19T16:05:16;10.70;99.90
3919;DHT22;1974;48.670;8.994;2023-11-19T16:07:42;10.70;99.90
3919;DHT22;1974;48.670;8.994;2023-11-19T16:10:09;10.70;99.90
3919;DHT22;1974;48.670;8.994;2023-11-19T16:12:38;10.70;99.90
3919;DHT22;1974;48.670;8.994;2023-11-19T16:15:05;10.60;99.90